Time;durP1;ratioP1;P1;durP2;ratioP2;P2;SDS_P1;SDS_P2;PMS_P1;PMS_P2;Temp;Humidity;BMP_temperature;BMP_pressure;BME280_temperature;BME280_humidity;BME280_pressure;Samples;Min_cycle;Max_cycle;Signal;HPM_P1;HPM_P2
2021/11/13 00:00:00;;;;;;;54.23;19.50;;;3.40;99.90;;;;;;5031656;28;20101;-72
2021/11/13 00:02:26;;;;;;;58.97;19.03;;;3.40;99.90;;;;;;5031727;28;20176;-73
2021/11/13 00:04:52;;;;;;;41.80;18.53;;;3.40;99.90;;;;;;5031459;28;20390;-73
2021/11/13 00:07:18;;;;;;;46.47;19.13;;;3.40;99.90;;;;;;5031743;28;20053;-73
2021/11/13 00:09:44;;;;;;;29.67;18.00;;;3.30;99.90;;;;;;5031523;28;20029;-72
2021/11/13 00:12:10;;;;;;;38.63;18.83;;;3.30;99.90;;;;;;5031553;28;20421;-73
2021/11/13 00:14:36;;;;;;;59.90;19.50;;;3.30;99.90;;;;;;5031363;28;20060;-72
2021/11/13 00:17:02;;;;;;;55.63;19.60;;;3.30;99.90;;;;;;5031497;28;20072;-72
2021/11/13 00:19:29;;;;;;;39.87;18.93;;;3.30;99.90;;;;;;5031547;28;20374;-72
2021/11/13 00:21:55;;;;;;;45.27;20.90;;;3.30;99.90;;;;;;5031905;28;20037;-73
2021/11/13 00:24:21;;;;;;;49.17;20.57;;;3.30;99.90;;;;;;5032393;28;20033;-73
2021/11/13 00:26:47;;;;;;;44.77;21.73;;;3.30;99.90;;;;;;5032090;28;20033;-73
2021/11/13 00:29:13;;;;;;;36.57;19.90;;;3.30;99.90;;;;;;5031921;28;20065;-73
2021/11/13 00:31:38;;;;;;;51.13;22.33;;;3.30;99.90;;;;;;5031731;28;20029;-73
2021/11/13 00:34:04;;;;;;;68.93;21.53;;;3.20;99.90;;;;;;5033094;28;20091;-73
2021/11/13 00:36:30;;;;;;;45.63;20.73;;;3.20;99.90;;;;;;5035334;28;20682;-73
2021/11/13 00:38:55;;;;;;;48.57;21.93;;;3.20;99.90;;;;;;5051355;28;20029;-73
2021/11/13 00:41:21;;;;;;;47.43;21.43;;;3.20;99.90;;;;;;5035530;28;20050;-73
2021/11/13 00:43:48;;;;;;;50.57;22.43;;;3.30;99.90;;;;;;5035609;28;20037;-73
2021/11/13 00:46:14;;;;;;;50.27;21.47;;;3.30;99.90;;;;;;5035895;28;20441;-73
2021/11/13 00:48:40;;;;;;;58.37;22.90;;;3.30;99.90;;;;;;5035587;28;20104;-73
2021/11/13 00:51:05;;;;;;;73.33;22.57;;;3.20;99.90;;;;;;5035276;28;20029;-73
2021/11/13 00:53:32;;;;;;;65.70;23.03;;;3.30;99.90;;;;;;5035454;28;20037;-73
2021/11/13 00:55:59;;;;;;;53.70;22.10;;;3.30;99.90;;;;;;5035380;28;20040;-73
2021/11/13 00:58:25;;;;;;;41.77;21.63;;;3.30;99.90;;;;;;5035299;28;20083;-73
2021/11/13 01:00:51;;;;;;;55.10;21.80;;;3.30;99.90;;;;;;5035125;28;20029;-73
2021/11/13 01:03:16;;;;;;;47.43;19.87;;;3.30;99.90;;;;;;5035260;28;20033;-73
2021/11/13 01:05:42;;;;;;;45.43;18.73;;;3.30;99.90;;;;;;5035229;28;20029;-73
2021/11/13 01:08:08;;;;;;;44.70;18.90;;;3.20;99.90;;;;;;5050512;28;20030;-73
2021/11/13 01:10:33;;;;;;;45.47;18.73;;;3.20;99.90;;;;;;5035091;28;20462;-73
2021/11/13 01:12:59;;;;;;;33.23;16.77;;;3.20;99.90;;;;;;5035191;28;20060;-73
2021/11/13 01:15:25;;;;;;;47.37;18.73;;;3.10;99.90;;;;;;5050402;28;20036;-73
2021/11/13 01:17:50;;;;;;;32.87;17.57;;;3.10;99.90;;;;;;5034679;28;20036;-72
2021/11/13 01:20:18;;;;;;;38.27;16.70;;;3.00;99.90;;;;;;5049577;28;20187;-73
2021/11/13 01:22:45;;;;;;;55.47;18.03;;;3.00;99.90;;;;;;5034335;28;20030;-73
2021/11/13 01:25:11;;;;;;;162.33;20.60;;;3.00;99.90;;;;;;5034063;28;20033;-72
2021/11/13 01:27:36;;;;;;;84.63;18.77;;;3.00;99.90;;;;;;5034318;28;20371;-72
2021/11/13 01:30:04;;;;;;;47.63;19.07;;;2.90;99.90;;;;;;5034128;28;20104;-72
2021/11/13 01:32:32;;;;;;;40.60;19.10;;;2.90;99.90;;;;;;5034126;28;20029;-72
2021/11/13 01:34:58;;;;;;;72.43;19.07;;;2.90;99.90;;;;;;5033817;28;20025;-72
2021/11/13 01:37:24;;;;;;;76.90;19.90;;;2.90;99.90;;;;;;5033862;28;20028;-72
2021/11/13 01:39:49;;;;;;;98.30;20.27;;;2.90;99.90;;;;;;5034194;28;20030;-72
2021/11/13 01:42:15;;;;;;;38.63;18.73;;;2.90;99.90;;;;;;5033906;28;20462;-73
2021/11/13 01:44:41;;;;;;;50.80;18.93;;;2.90;99.90;;;;;;5033661;28;20052;-72
2021/11/13 01:47:07;;;;;;;110.63;22.17;;;2.90;99.90;;;;;;5033207;28;20103;-72
2021/11/13 01:49:35;;;;;;;90.20;23.33;;;2.90;99.90;;;;;;5033615;28;20064;-72
2021/11/13 01:52:07;;;;;;;100.47;20.53;;;2.80;99.90;;;;;;5033514;28;20305;-72
2021/11/13 01:54:36;;;;;;;90.43;19.97;;;2.80;99.90;;;;;;5033784;28;20053;-73
2021/11/13 01:57:07;;;;;;;65.57;17.53;;;2.80;99.90;;;;;;5033397;28;20053;-73
2021/11/13 01:59:33;;;;;;;80.87;17.57;;;2.80;99.90;;;;;;5033399;28;20072;-72
2021/11/13 02:01:59;;;;;;;75.07;15.90;;;2.80;99.90;;;;;;5033187;28;20112;-73
2021/11/13 02:04:24;;;;;;;45.63;14.17;;;2.80;99.90;;;;;;5033359;28;20461;-72
2021/11/13 02:06:50;;;;;;;33.77;15.20;;;2.80;99.90;;;;;;5031890;28;20071;-73
2021/11/13 02:09:15;;;;;;;188.63;19.33;;;2.70;99.90;;;;;;5033220;28;20076;-73
2021/11/13 02:11:41;;;;;;;40.50;13.90;;;2.70;99.90;;;;;;5033302;28;20124;-73
2021/11/13 02:14:07;;;;;;;32.37;15.97;;;2.70;99.90;;;;;;5032860;28;20044;-72
2021/11/13 02:16:32;;;;;;;24.40;15.67;;;2.60;99.90;;;;;;5031811;28;20037;-73
2021/11/13 02:18:58;;;;;;;56.33;17.33;;;2.60;99.90;;;;;;5032970;28;20025;-72
2021/11/13 02:21:26;;;;;;;26.40;15.83;;;2.60;99.90;;;;;;5033629;28;20022;-73
2021/11/13 02:23:53;;;;;;;30.00;15.57;;;2.60;99.90;;;;;;5033530;28;20382;-73
2021/11/13 02:26:18;;;;;;;37.87;15.27;;;2.60;99.90;;;;;;5033063;28;20029;-73
2021/11/13 02:28:44;;;;;;;115.33;17.17;;;2.60;99.90;;;;;;5033036;28;20101;-72
2021/11/13 02:31:11;;;;;;;77.63;18.00;;;2.60;99.90;;;;;;5032815;28;20029;-73
2021/11/13 02:33:38;;;;;;;36.47;16.73;;;2.60;99.90;;;;;;5032905;28;20087;-72
2021/11/13 02:36:06;;;;;;;38.57;16.77;;;2.60;99.90;;;;;;5032737;28;20026;-73
2021/11/13 02:38:36;;;;;;;50.17;16.37;;;2.60;99.90;;;;;;5033102;28;20095;-73
2021/11/13 02:41:04;;;;;;;57.77;15.27;;;2.60;99.90;;;;;;5032667;28;20498;-72
2021/11/13 02:43:32;;;;;;;22.90;12.77;;;2.60;99.90;;;;;;5032779;28;20040;-73
2021/11/13 02:46:01;;;;;;;42.40;14.60;;;2.70;99.90;;;;;;5047892;28;20485;-72
2021/11/13 02:48:29;;;;;;;112.00;14.27;;;2.60;99.90;;;;;;5032934;28;20053;-73
2021/11/13 02:50:55;;;;;;;89.50;15.60;;;2.60;99.90;;;;;;5032693;28;20041;-72
2021/11/13 02:53:23;;;;;;;54.03;14.07;;;2.60;99.90;;;;;;5032709;28;20095;-72
2021/11/13 02:55:51;;;;;;;90.63;15.67;;;2.60;99.90;;;;;;5048560;28;20048;-73
2021/11/13 02:58:17;;;;;;;89.53;14.53;;;2.60;99.90;;;;;;5032645;28;20025;-73
2021/11/13 03:00:44;;;;;;;118.67;15.63;;;2.50;99.90;;;;;;5033231;28;20067;-73
2021/11/13 03:03:17;;;;;;;59.73;13.83;;;2.60;99.90;;;;;;5033187;28;20465;-73
2021/11/13 03:05:57;;;;;;;154.60;17.53;;;2.50;99.90;;;;;;5033279;28;20108;-73
2021/11/13 03:08:28;;;;;;;106.53;15.33;;;2.50;99.90;;;;;;5048377;28;20041;-73
2021/11/13 03:10:56;;;;;;;66.13;15.60;;;2.50;99.90;;;;;;5048251;28;20164;-73
2021/11/13 03:13:23;;;;;;;159.03;18.57;;;2.50;99.90;;;;;;5033089;28;20048;-73
2021/11/13 03:15:50;;;;;;;128.60;18.07;;;2.50;99.90;;;;;;5033040;28;20017;-73
2021/11/13 03:18:16;;;;;;;104.10;16.27;;;2.50;99.90;;;;;;5048392;28;20029;-74
2021/11/13 03:20:41;;;;;;;21.80;14.27;;;2.60;99.90;;;;;;5033083;28;20033;-73
2021/11/13 03:23:08;;;;;;;151.53;16.60;;;2.60;99.90;;;;;;5032885;28;20030;-73
2021/11/13 03:25:40;;;;;;;144.17;17.73;;;2.60;99.90;;;;;;5033012;28;20025;-73
2021/11/13 03:28:12;;;;;;;155.57;17.93;;;2.60;99.90;;;;;;5032868;28;20033;-73
2021/11/13 03:30:38;;;;;;;140.47;17.53;;;2.60;99.90;;;;;;5032998;28;20550;-73
2021/11/13 03:33:05;;;;;;;148.67;18.17;;;2.60;99.90;;;;;;5032781;28;20037;-73
2021/11/13 03:35:31;;;;;;;62.40;14.67;;;2.60;99.90;;;;;;5032826;28;20545;-73
2021/11/13 03:38:03;;;;;;;166.20;18.57;;;2.60;99.90;;;;;;5032873;28;20025;-74
2021/11/13 03:40:29;;;;;;;152.90;17.33;;;2.60;99.90;;;;;;5032322;28;20438;-73
2021/11/13 03:42:54;;;;;;;151.13;18.00;;;2.70;99.90;;;;;;5033015;28;20080;-73
2021/11/13 03:45:20;;;;;;;90.93;16.17;;;2.60;99.90;;;;;;5032622;28;20035;-74
2021/11/13 03:47:46;;;;;;;83.00;16.30;;;2.70;99.90;;;;;;5031693;28;20083;-73
2021/11/13 03:50:11;;;;;;;84.47;15.97;;;2.70;99.90;;;;;;5032745;28;20025;-73
2021/11/13 03:52:37;;;;;;;73.70;14.80;;;2.70;99.90;;;;;;5032593;28;20072;-73
2021/11/13 03:55:04;;;;;;;226.80;20.87;;;2.70;99.90;;;;;;5032540;28;20061;-73
2021/11/13 03:57:29;;;;;;;149.07;18.90;;;2.70;99.90;;;;;;5032607;28;20088;-73
2021/11/13 03:59:55;;;;;;;182.63;17.03;;;2.70;99.90;;;;;;5032679;28;20021;-73
2021/11/13 04:02:21;;;;;;;21.87;15.17;;;2.70;99.90;;;;;;5032699;28;20041;-73
2021/11/13 04:04:47;;;;;;;142.53;17.97;;;2.70;99.90;;;;;;5032417;28;20056;-73
2021/11/13 04:07:13;;;;;;;61.60;15.20;;;2.70;99.90;;;;;;5032664;28;20059;-73
2021/11/13 04:09:39;;;;;;;100.80;16.40;;;2.70;99.90;;;;;;5034481;28;20036;-73
2021/11/13 04:12:06;;;;;;;92.77;16.07;;;2.70;99.90;;;;;;5034788;28;20160;-73
2021/11/13 04:14:33;;;;;;;51.53;15.80;;;2.70;99.90;;;;;;5035177;28;20465;-73
2021/11/13 04:17:00;;;;;;;60.73;15.60;;;2.70;99.90;;;;;;5036581;28;20421;-73
2021/11/13 04:19:25;;;;;;;112.77;18.17;;;2.70;99.90;;;;;;5036296;28;20474;-73
2021/11/13 04:21:51;;;;;;;130.23;18.03;;;2.70;99.90;;;;;;5036391;28;20386;-73
2021/11/13 04:24:17;;;;;;;127.50;18.83;;;2.70;99.90;;;;;;5034617;28;20029;-73
2021/11/13 04:26:43;;;;;;;119.17;17.73;;;2.70;99.90;;;;;;5036165;28;20033;-73
2021/11/13 04:29:08;;;;;;;99.10;19.07;;;2.70;99.90;;;;;;5035978;28;20526;-73
2021/11/13 04:31:34;;;;;;;29.27;15.50;;;2.70;99.90;;;;;;5036028;28;20033;-73
2021/11/13 04:34:02;;;;;;;104.87;17.57;;;2.70;99.90;;;;;;5034510;28;20509;-73
2021/11/13 04:36:32;;;;;;;101.83;16.67;;;2.70;99.90;;;;;;5035884;28;20108;-73
2021/11/13 04:38:58;;;;;;;98.93;17.67;;;2.70;99.90;;;;;;5035579;28;20021;-73
2021/11/13 04:41:24;;;;;;;155.37;18.70;;;2.70;99.90;;;;;;5035559;28;20092;-73
2021/11/13 04:43:49;;;;;;;113.87;18.53;;;2.70;99.90;;;;;;5035658;28;20025;-73
2021/11/13 04:46:15;;;;;;;51.90;17.50;;;2.70;99.90;;;;;;5035437;28;20383;-73
2021/11/13 04:48:41;;;;;;;141.77;18.97;;;2.70;99.90;;;;;;5035711;28;20312;-73
2021/11/13 04:51:06;;;;;;;142.00;18.90;;;2.70;99.90;;;;;;5035533;28;20033;-73
2021/11/13 04:53:32;;;;;;;126.53;18.87;;;2.60;99.90;;;;;;5035642;28;20041;-73
2021/11/13 04:55:58;;;;;;;84.40;25.07;;;2.60;99.90;;;;;;5035555;28;20056;-73
2021/11/13 04:58:23;;;;;;;169.90;70.17;;;2.70;99.90;;;;;;5034015;28;20034;-73
2021/11/13 05:00:49;;;;;;;137.07;19.33;;;2.60;99.90;;;;;;5035556;28;20144;-73
2021/11/13 05:03:15;;;;;;;100.53;18.63;;;2.60;99.90;;;;;;5035258;28;20029;-73
2021/11/13 05:05:40;;;;;;;138.83;18.63;;;2.60;99.90;;;;;;5035327;28;20112;-73
2021/11/13 05:08:06;;;;;;;107.27;18.40;;;2.60;99.90;;;;;;5035379;28;20033;-73
2021/11/13 05:10:32;;;;;;;112.20;19.13;;;2.60;99.90;;;;;;5035142;28;20466;-73
2021/11/13 05:12:57;;;;;;;57.53;18.40;;;2.60;99.90;;;;;;5035081;28;20037;-73
2021/11/13 05:15:23;;;;;;;80.17;18.07;;;2.50;99.90;;;;;;5033783;28;20080;-73
2021/11/13 05:17:49;;;;;;;89.70;18.07;;;2.60;99.90;;;;;;5033499;28;20360;-73
2021/11/13 05:20:17;;;;;;;45.47;17.03;;;2.60;99.90;;;;;;5034985;28;20108;-73
2021/11/13 05:22:44;;;;;;;40.50;16.20;;;2.60;99.90;;;;;;5034621;28;20056;-73
2021/11/13 05:25:11;;;;;;;128.93;19.70;;;2.50;99.90;;;;;;5034869;28;20026;-72
2021/11/13 05:27:38;;;;;;;44.03;16.67;;;2.50;99.90;;;;;;5035013;28;20116;-73
2021/11/13 05:30:06;;;;;;;60.13;18.20;;;2.50;99.90;;;;;;5034688;28;20033;-73
2021/11/13 05:32:32;;;;;;;84.23;18.13;;;2.60;99.90;;;;;;5049891;28;20030;-73
2021/11/13 05:34:58;;;;;;;46.23;18.80;;;2.60;99.90;;;;;;5033771;28;20029;-73
2021/11/13 05:37:23;;;;;;;87.43;18.20;;;2.50;99.90;;;;;;5035058;28;20036;-73
2021/11/13 05:39:49;;;;;;;91.27;17.80;;;2.60;99.90;;;;;;5049869;28;20079;-73
2021/11/13 05:42:17;;;;;;;61.47;17.67;;;2.60;99.90;;;;;;5034567;28;20053;-73
2021/11/13 05:44:43;;;;;;;85.00;19.30;;;2.60;99.90;;;;;;5034921;28;20067;-73
2021/11/13 05:47:09;;;;;;;60.20;18.50;;;2.60;99.90;;;;;;5034662;28;20033;-73
2021/11/13 05:49:35;;;;;;;42.03;17.27;;;2.60;99.90;;;;;;5031991;28;20362;-75
2021/11/13 05:52:01;;;;;;;53.20;19.53;;;2.60;99.90;;;;;;5031484;28;20036;-75
2021/11/13 05:54:26;;;;;;;62.13;18.93;;;2.60;99.90;;;;;;5031629;28;20339;-75
2021/11/13 05:56:52;;;;;;;79.67;18.63;;;2.60;99.90;;;;;;5046768;28;20018;-74
2021/11/13 05:59:18;;;;;;;54.83;17.27;;;2.60;99.90;;;;;;5031108;28;20474;-74
2021/11/13 06:01:43;;;;;;;79.30;18.07;;;2.70;99.90;;;;;;5031235;28;20095;-73
2021/11/13 06:04:09;;;;;;;33.70;16.20;;;2.60;99.90;;;;;;5030976;28;20025;-74
2021/11/13 06:06:35;;;;;;;44.67;16.97;;;2.60;99.90;;;;;;5031019;28;20064;-73
2021/11/13 06:09:01;;;;;;;81.23;17.80;;;2.50;99.90;;;;;;5031582;28;20075;-74
2021/11/13 06:11:26;;;;;;;74.77;18.10;;;2.50;99.90;;;;;;5046576;28;20037;-74
2021/11/13 06:13:52;;;;;;;23.97;16.20;;;2.50;99.90;;;;;;5029938;28;20030;-74
2021/11/13 06:16:18;;;;;;;72.17;18.13;;;2.50;99.90;;;;;;5046693;28;20025;-73
2021/11/13 06:18:43;;;;;;;36.13;18.13;;;2.50;99.90;;;;;;5031109;28;20067;-74
2021/11/13 06:21:09;;;;;;;36.97;17.20;;;2.50;99.90;;;;;;5031216;28;20034;-74
2021/11/13 06:23:38;;;;;;;67.97;17.57;;;2.50;99.90;;;;;;5030755;28;20061;-74
2021/11/13 06:26:05;;;;;;;29.83;17.50;;;2.50;99.90;;;;;;5030667;28;20021;-74
2021/11/13 06:28:31;;;;;;;62.13;17.80;;;2.40;99.90;;;;;;5030781;28;20390;-74
2021/11/13 06:30:57;;;;;;;30.20;16.53;;;2.40;99.90;;;;;;5030884;28;20037;-74
2021/11/13 06:33:23;;;;;;;69.17;18.13;;;2.40;99.90;;;;;;5030392;28;20380;-74
2021/11/13 06:35:48;;;;;;;65.17;18.07;;;2.40;99.90;;;;;;5030639;28;20022;-74
2021/11/13 06:38:14;;;;;;;38.83;18.00;;;2.40;99.90;;;;;;5031105;28;20026;-74
2021/11/13 06:40:40;;;;;;;43.53;17.47;;;2.40;99.90;;;;;;5030634;28;20029;-74
2021/11/13 06:43:05;;;;;;;57.30;18.53;;;2.50;99.90;;;;;;5029262;28;20041;-74
2021/11/13 06:45:31;;;;;;;59.53;18.37;;;2.50;99.90;;;;;;5030547;28;20025;-74
2021/11/13 06:47:57;;;;;;;40.07;18.37;;;2.40;99.90;;;;;;5031268;28;20073;-75
2021/11/13 06:50:23;;;;;;;61.17;18.87;;;2.40;99.90;;;;;;5030429;28;20136;-75
2021/11/13 06:52:48;;;;;;;36.60;16.60;;;2.50;99.90;;;;;;5034607;28;20044;-76
2021/11/13 06:55:14;;;;;;;49.80;15.77;;;2.50;99.90;;;;;;5030052;28;20083;-76
2021/11/13 06:57:41;;;;;;;34.27;16.43;;;2.50;99.90;;;;;;5032047;28;20458;-76
2021/11/13 07:00:17;;;;;;;46.53;16.83;;;2.50;99.90;;;;;;5032679;28;20463;-80
2021/11/13 07:02:43;;;;;;;42.17;15.70;;;2.50;99.90;;;;;;5031346;28;20358;-80
2021/11/13 07:05:10;;;;;;;40.30;15.43;;;2.50;99.90;;;;;;5029803;28;20033;-79
2021/11/13 07:07:35;;;;;;;48.00;14.33;;;2.50;99.90;;;;;;5028246;28;20029;-79
2021/11/13 07:10:03;;;;;;;30.03;14.67;;;2.60;99.90;;;;;;5030604;28;20139;-79
2021/11/13 07:12:29;;;;;;;30.87;14.33;;;2.60;99.90;;;;;;5031090;28;20029;-77
2021/11/13 07:14:57;;;;;;;42.83;13.77;;;2.60;99.90;;;;;;5031354;28;20446;-84
2021/11/13 07:17:23;;;;;;;32.57;14.33;;;2.60;99.90;;;;;;5030099;28;20099;-78
2021/11/13 07:19:48;;;;;;;37.37;13.90;;;2.60;99.90;;;;;;5031000;28;20382;-77
2021/11/13 07:22:16;;;;;;;37.53;13.80;;;2.60;99.90;;;;;;5029868;28;20057;-76
2021/11/13 07:24:42;;;;;;;44.23;14.13;;;2.60;99.90;;;;;;5030737;28;20044;-76
2021/11/13 07:27:09;;;;;;;25.13;13.70;;;2.60;99.90;;;;;;5046302;28;20035;-76
2021/11/13 07:29:44;;;;;;;41.20;14.43;;;2.50;99.90;;;;;;5030289;28;20029;-76
2021/11/13 07:32:10;;;;;;;30.08;14.70;;;2.50;99.90;;;;;;5023325;28;20033;-79
2021/11/13 07:34:35;;;;;;;26.53;14.20;;;2.50;99.90;;;;;;5014254;28;20042;-79
2021/11/13 07:37:01;;;;;;;19.27;12.23;;;2.50;99.90;;;;;;5015276;28;20109;-79
2021/11/13 07:39:26;;;;;;;17.63;11.90;;;2.50;99.90;;;;;;5030349;28;20025;-79
2021/11/13 07:41:52;;;;;;;14.63;11.10;;;2.50;99.90;;;;;;5015620;28;20072;-79
2021/11/13 07:44:18;;;;;;;14.73;10.73;;;2.50;99.90;;;;;;5016662;28;20104;-76
2021/11/13 07:46:43;;;;;;;14.40;10.33;;;2.60;99.90;;;;;;5018842;28;20105;-78
2021/11/13 07:49:10;;;;;;;14.87;10.30;;;2.60;99.90;;;;;;5020918;28;20064;-78
2021/11/13 07:51:36;;;;;;;11.50;9.27;;;2.70;99.90;;;;;;5019784;28;20022;-76
2021/11/13 07:54:03;;;;;;;13.90;9.33;;;2.70;99.90;;;;;;5019393;28;20092;-76
2021/11/13 07:56:29;;;;;;;12.70;8.80;;;2.80;99.90;;;;;;5019543;28;20022;-76
2021/11/13 07:58:55;;;;;;;12.07;9.27;;;2.90;99.90;;;;;;5018034;28;20045;-76
2021/11/13 08:01:21;;;;;;;9.77;7.93;;;2.90;99.90;;;;;;5018660;28;20060;-78
2021/11/13 08:03:46;;;;;;;9.60;7.73;;;3.00;99.90;;;;;;5018784;28;20086;-78
2021/11/13 08:06:13;;;;;;;9.83;7.30;;;3.10;99.90;;;;;;5018695;28;20042;-79
2021/11/13 08:08:39;;;;;;;10.53;7.93;;;3.10;99.90;;;;;;5018653;28;20061;-79
2021/11/13 08:11:04;;;;;;;9.70;7.27;;;3.20;99.90;;;;;;5018274;28;20061;-78
2021/11/13 08:13:31;;;;;;;7.77;6.77;;;3.30;99.90;;;;;;5019093;28;20044;-78
2021/11/13 08:15:56;;;;;;;9.90;7.67;;;3.30;99.90;;;;;;5018257;28;20030;-79
2021/11/13 08:18:22;;;;;;;10.03;7.40;;;3.30;99.90;;;;;;5018349;28;20079;-79
2021/11/13 08:20:48;;;;;;;8.93;7.50;;;3.30;99.90;;;;;;5018473;28;20422;-78
2021/11/13 08:23:15;;;;;;;8.90;7.40;;;3.30;99.90;;;;;;5018128;28;20441;-78
2021/11/13 08:25:42;;;;;;;10.60;7.33;;;3.40;99.90;;;;;;5018343;28;20040;-79
2021/11/13 08:28:09;;;;;;;10.83;8.37;;;3.40;99.90;;;;;;5018316;28;20049;-79
2021/11/13 08:30:36;;;;;;;11.40;8.10;;;3.40;99.90;;;;;;5018578;28;20152;-79
2021/11/13 08:33:02;;;;;;;10.40;8.20;;;3.40;99.90;;;;;;5033403;28;20034;-79
2021/11/13 08:35:29;;;;;;;10.03;8.23;;;3.50;99.90;;;;;;5020594;28;20049;-78
2021/11/13 08:37:55;;;;;;;13.93;10.27;;;3.50;99.90;;;;;;5022922;28;20018;-78
2021/11/13 08:40:20;;;;;;;13.50;10.17;;;3.60;99.90;;;;;;5037727;28;20034;-78
2021/11/13 08:42:46;;;;;;;13.90;10.20;;;3.50;99.90;;;;;;5026888;28;20103;-78
2021/11/13 08:45:13;;;;;;;17.77;11.63;;;3.60;99.90;;;;;;5021734;28;20906;-78
2021/11/13 08:47:41;;;;;;;16.47;10.67;;;3.50;99.90;;;;;;5022438;28;20105;-78
2021/11/13 08:50:10;;;;;;;15.73;11.23;;;3.50;99.90;;;;;;5020696;28;20124;-76
2021/11/13 08:52:35;;;;;;;15.40;11.43;;;3.60;99.90;;;;;;5018066;28;20410;-77
2021/11/13 08:55:01;;;;;;;17.33;12.10;;;3.60;99.90;;;;;;5019171;28;20030;-76
2021/11/13 08:57:27;;;;;;;14.87;11.27;;;3.60;99.90;;;;;;5018263;28;20064;-76
2021/11/13 08:59:52;;;;;;;18.13;11.93;;;3.70;99.90;;;;;;5018593;28;20034;-76
2021/11/13 09:02:25;;;;;;;17.40;12.03;;;3.70;99.90;;;;;;5018524;28;20045;-76
2021/11/13 09:04:52;;;;;;;17.10;12.63;;;3.80;99.90;;;;;;5018614;28;20033;-76
2021/11/13 09:07:19;;;;;;;17.77;12.17;;;3.80;99.90;;;;;;5033538;28;20089;-77
2021/11/13 09:09:46;;;;;;;21.97;13.60;;;3.90;99.90;;;;;;5017680;28;20072;-76
2021/11/13 09:12:21;;;;;;;20.20;14.27;;;4.00;99.90;;;;;;5017313;28;20037;-76
2021/11/13 09:14:49;;;;;;;18.77;13.82;;;4.00;99.90;;;;;;5017547;28;20474;-76
2021/11/13 09:17:15;;;;;;;18.70;13.47;;;4.10;99.90;;;;;;5017899;28;20026;-76
2021/11/13 09:19:41;;;;;;;18.60;13.90;;;4.10;99.90;;;;;;5018188;28;20402;-76
2021/11/13 09:22:06;;;;;;;20.07;14.47;;;4.20;99.90;;;;;;5019356;28;20203;-77
2021/11/13 09:24:32;;;;;;;18.27;12.87;;;4.30;99.90;;;;;;5023043;28;20427;-77
2021/11/13 09:26:58;;;;;;;17.80;12.20;;;4.30;99.90;;;;;;5022757;28;20021;-78
2021/11/13 09:31:59;;;;;;;;;;;4.40;99.90;;;;;;3803947;26;20073;-78
2021/11/13 09:34:25;;;;;;;21.87;13.80;;;4.40;99.90;;;;;;5042525;28;20397;-77
2021/11/13 09:36:50;;;;;;;19.67;13.80;;;4.50;99.90;;;;;;5041695;28;20125;-79
2021/11/13 09:39:17;;;;;;;20.20;13.63;;;4.60;99.90;;;;;;5041829;28;20086;-79
2021/11/13 09:41:47;;;;;;;17.40;13.40;;;4.70;99.90;;;;;;5038399;28;20040;-80
2021/11/13 09:44:13;;;;;;;18.63;12.97;;;4.70;99.90;;;;;;5039580;28;20030;-80
2021/11/13 09:46:39;;;;;;;16.80;12.80;;;4.80;99.90;;;;;;5038414;28;20025;-80
2021/11/13 09:49:05;;;;;;;18.80;13.43;;;4.80;99.90;;;;;;5039711;28;20083;-83
2021/11/13 09:51:37;;;;;;;22.23;13.43;;;4.80;99.90;;;;;;5024619;28;20013;-83
2021/11/13 09:54:03;;;;;;;16.17;11.27;;;4.90;99.90;;;;;;5032318;28;20072;-76
2021/11/13 09:56:30;;;;;;;16.73;12.10;;;5.00;99.90;;;;;;5033318;28;20502;-75
2021/11/13 09:58:56;;;;;;;17.23;11.90;;;5.00;99.90;;;;;;5016237;28;20105;-76
2021/11/13 10:01:24;;;;;;;20.90;13.47;;;5.00;99.90;;;;;;5033602;28;20100;-75
2021/11/13 10:03:51;;;;;;;18.17;12.47;;;5.10;99.90;;;;;;5033440;28;20037;-76
2021/11/13 10:06:17;;;;;;;21.57;13.43;;;5.10;99.90;;;;;;5033290;28;20056;-76
2021/11/13 10:08:49;;;;;;;17.47;12.80;;;5.20;99.90;;;;;;5032407;28;20030;-77
2021/11/13 10:11:19;;;;;;;18.23;12.67;;;5.30;99.90;;;;;;5015116;28;20123;-76
2021/11/13 10:14:05;;;;;;;20.13;12.87;;;5.40;99.90;;;;;;5033767;28;20040;-75
2021/11/13 10:16:36;;;;;;;19.00;12.87;;;5.50;99.90;;;;;;5033647;28;20041;-76
2021/11/13 10:19:19;;;;;;;18.63;12.83;;;5.50;99.90;;;;;;5033930;28;20051;-76
2021/11/13 10:21:51;;;;;;;19.47;12.73;;;5.60;99.90;;;;;;5033590;28;20366;-78
2021/11/13 10:24:30;;;;;;;16.23;11.60;;;5.70;99.90;;;;;;5014179;28;20029;-74
2021/11/13 10:27:06;;;;;;;22.30;12.30;;;5.80;99.90;;;;;;5033311;28;20060;-76
2021/11/13 10:29:38;;;;;;;16.90;12.17;;;5.90;99.90;;;;;;5033693;28;20026;-76
2021/11/13 10:32:19;;;;;;;16.20;11.83;;;6.00;99.90;;;;;;5015467;28;20099;-79
2021/11/13 10:34:47;;;;;;;16.10;12.13;;;6.20;99.90;;;;;;5015600;28;20033;-79
2021/11/13 10:37:22;;;;;;;17.13;12.87;;;6.20;99.90;;;;;;5033335;28;20017;-78
2021/11/13 10:39:49;;;;;;;15.25;11.80;;;6.30;99.90;;;;;;5015441;28;20071;-79
2021/11/13 10:42:22;;;;;;;17.77;13.00;;;6.40;99.90;;;;;;5033588;28;20034;-79
2021/11/13 10:44:53;;;;;;;18.93;12.03;;;6.40;99.90;;;;;;5016448;28;20029;-79
2021/11/13 10:47:28;;;;;;;30.07;12.93;;;6.60;99.90;;;;;;5015859;28;20515;-79
2021/11/13 10:50:11;;;;;;;19.17;11.73;;;6.70;99.90;;;;;;5034085;28;20065;-79
2021/11/13 10:52:36;;;;;;;15.67;11.50;;;6.70;99.90;;;;;;5032993;28;20032;-80
2021/11/13 10:55:02;;;;;;;17.67;12.70;;;6.90;99.90;;;;;;5034606;28;20026;-83
2021/11/13 10:57:30;;;;;;;16.47;11.77;;;6.90;99.90;;;;;;5016226;28;20418;-86
2021/11/13 11:00:16;;;;;;;18.33;12.27;;;7.00;99.90;;;;;;5026066;28;20270;-81
2021/11/13 11:06:36;;;;;;;14.67;11.33;;;7.20;99.90;;;;;;4965875;28;20043;-82
2021/11/13 11:15:47;;;;;;;16.23;11.83;;;7.40;99.90;;;;;;5016114;28;20486;-82
2021/11/13 11:18:16;;;;;;;17.53;12.83;;;7.50;99.90;;;;;;5014485;28;20373;-78
2021/11/13 11:20:45;;;;;;;17.33;11.97;;;7.50;99.90;;;;;;5031999;28;20072;-79
2021/11/13 11:23:16;;;;;;;17.07;11.80;;;7.50;99.90;;;;;;5032690;28;20029;-78
2021/11/13 11:25:41;;;;;;;14.63;11.77;;;7.50;99.90;;;;;;5033518;28;20041;-79
2021/11/13 11:28:07;;;;;;;17.03;12.50;;;7.60;99.90;;;;;;5034132;28;20095;-80
2021/11/13 11:30:45;;;;;;;17.10;12.53;;;7.70;99.90;;;;;;5049504;28;20058;-80
2021/11/13 11:33:11;;;;;;;17.97;12.70;;;7.80;99.90;;;;;;5050031;28;20382;-81
2021/11/13 11:35:39;;;;;;;17.33;11.30;;;7.80;99.90;;;;;;5033159;28;20030;-80
2021/11/13 11:38:11;;;;;;;16.83;12.10;;;8.00;99.90;;;;;;5015535;28;20112;-80
2021/11/13 11:40:43;;;;;;;15.37;12.17;;;8.10;99.90;;;;;;5033224;28;20021;-79
2021/11/13 11:43:30;;;;;;;19.43;12.33;;;8.10;99.90;;;;;;5032962;28;20056;-79
2021/11/13 11:45:56;;;;;;;16.80;12.30;;;8.10;99.90;;;;;;5015647;28;20124;-80
2021/11/13 11:48:22;;;;;;;16.50;12.57;;;8.10;99.90;;;;;;5033038;28;20505;-79
2021/11/13 11:50:49;;;;;;;19.83;12.23;;;8.00;99.90;;;;;;5015277;28;20343;-78
2021/11/13 11:53:15;;;;;;;16.33;11.87;;;8.00;99.90;;;;;;5032880;28;20037;-78
2021/11/13 11:55:46;;;;;;;18.73;13.00;;;8.00;99.90;;;;;;5032922;28;20030;-78
2021/11/13 11:58:15;;;;;;;17.63;12.90;;;8.00;99.90;;;;;;5032900;28;20041;-78
2021/11/13 12:00:49;;;;;;;17.73;12.67;;;7.90;99.90;;;;;;5032860;28;20332;-78
2021/11/13 12:03:35;;;;;;;16.57;12.40;;;7.90;99.90;;;;;;5032495;28;20144;-82
2021/11/13 12:06:02;;;;;;;18.77;13.37;;;7.80;99.90;;;;;;5031895;28;20434;-82
2021/11/13 12:08:29;;;;;;;21.20;12.20;;;7.80;99.90;;;;;;5032211;28;20413;-83
2021/11/13 12:11:21;;;;;;;19.83;14.40;;;7.80;99.90;;;;;;5031084;28;20037;-83
2021/11/13 12:13:47;;;;;;;16.20;12.23;;;7.70;99.90;;;;;;5031141;28;20033;-82
2021/11/13 12:16:22;;;;;;;20.23;12.87;;;7.70;99.90;;;;;;5031368;28;20025;-83
2021/11/13 12:18:48;;;;;;;17.20;12.30;;;7.60;99.90;;;;;;5031661;28;20091;-84
2021/11/13 12:21:15;;;;;;;18.43;14.30;;;7.50;99.90;;;;;;5031631;28;20025;-84
2021/11/13 12:23:49;;;;;;;18.67;13.50;;;7.60;99.90;;;;;;5014098;28;20026;-84
2021/11/13 12:26:26;;;;;;;17.83;13.60;;;7.50;99.90;;;;;;5013243;28;20021;-83
2021/11/13 12:28:56;;;;;;;22.17;14.60;;;7.40;99.90;;;;;;5031600;28;20564;-84
2021/11/13 12:31:26;;;;;;;17.93;14.17;;;7.30;99.90;;;;;;5034325;28;20091;-83
2021/11/13 12:33:55;;;;;;;17.93;12.70;;;7.20;99.90;;;;;;5034657;28;20174;-84
2021/11/13 12:36:27;;;;;;;19.30;14.03;;;7.20;99.90;;;;;;5035510;28;20031;-83
2021/11/13 12:38:56;;;;;;;17.40;14.00;;;7.20;99.90;;;;;;5017650;28;20025;-83
2021/11/13 12:41:47;;;;;;;20.27;14.37;;;7.10;99.90;;;;;;5035248;28;20441;-83
2021/11/13 12:44:16;;;;;;;19.43;15.00;;;7.00;99.90;;;;;;5035370;28;20033;-83
2021/11/13 12:46:41;;;;;;;21.20;14.90;;;7.00;99.90;;;;;;5035090;28;20049;-84
2021/11/13 12:49:19;;;;;;;21.53;15.27;;;6.90;99.90;;;;;;5032534;28;20525;-83